<?xml version="1.0" encoding="UTF-8" standalone="no" ?>
<gpx xmlns="http://www.topografix.com/GPX/1/1" xmlns:xsi="http://www.w3.org/2001/XMLSchema-instance" xsi:schemaLocation="http://www.topografix.com/GPX/1/1 http://www.topografix.com/GPX/1/1/gpx.xsd" version="1.1" creator="VisuGPX - https://www.visugpx.com">
  <metadata>
    <name>2013 08 25 - VTT Corronsac</name>
    <desc><![CDATA[2013 08 25 - VTT Corronsac]]></desc>
  </metadata>
  <trk>
    <name><![CDATA[Tracé actuel: 25 AOU 2013 15:47]]></name>
    <trkseg>
      <trkpt lat="43.46179" lon="1.53117">
        <ele>200</ele>
        <time>2013-08-25T16:09:59Z</time>
      </trkpt>
      <trkpt lat="43.46185" lon="1.5312">
        <ele>200</ele>
        <time>2013-08-25T16:10:13Z</time>
      </trkpt>
      <trkpt lat="43.46187" lon="1.53121">
        <ele>200</ele>
        <time>2013-08-25T16:10:15Z</time>
      </trkpt>
      <trkpt lat="43.46199" lon="1.53119">
        <ele>200</ele>
        <time>2013-08-25T16:10:25Z</time>
      </trkpt>
      <trkpt lat="43.46202" lon="1.53117">
        <ele>200</ele>
        <time>2013-08-25T16:10:32Z</time>
      </trkpt>
      <trkpt lat="43.46203" lon="1.53117">
        <ele>200</ele>
        <time>2013-08-25T16:10:39Z</time>
      </trkpt>
      <trkpt lat="43.46202" lon="1.53117">
        <ele>200</ele>
        <time>2013-08-25T16:10:47Z</time>
      </trkpt>
      <trkpt lat="43.46203" lon="1.53116">
        <ele>200</ele>
        <time>2013-08-25T16:10:54Z</time>
      </trkpt>
      <trkpt lat="43.46204" lon="1.53118">
        <ele>200</ele>
        <time>2013-08-25T16:11:01Z</time>
      </trkpt>
      <trkpt lat="43.46203" lon="1.53117">
        <ele>200</ele>
        <time>2013-08-25T16:11:08Z</time>
      </trkpt>
      <trkpt lat="43.46212" lon="1.53114">
        <ele>200</ele>
        <time>2013-08-25T16:11:15Z</time>
      </trkpt>
      <trkpt lat="43.46226" lon="1.53106">
        <ele>199</ele>
        <time>2013-08-25T16:11:21Z</time>
      </trkpt>
      <trkpt lat="43.46241" lon="1.53098">
        <ele>198</ele>
        <time>2013-08-25T16:11:28Z</time>
      </trkpt>
      <trkpt lat="43.46252" lon="1.53094">
        <ele>197</ele>
        <time>2013-08-25T16:11:33Z</time>
      </trkpt>
      <trkpt lat="43.46265" lon="1.53085">
        <ele>198</ele>
        <time>2013-08-25T16:11:36Z</time>
      </trkpt>
      <trkpt lat="43.46285" lon="1.53075">
        <ele>197</ele>
        <time>2013-08-25T16:11:39Z</time>
      </trkpt>
      <trkpt lat="43.46299" lon="1.53067">
        <ele>197</ele>
        <time>2013-08-25T16:11:41Z</time>
      </trkpt>
      <trkpt lat="43.46339" lon="1.53046">
        <ele>197</ele>
        <time>2013-08-25T16:11:47Z</time>
      </trkpt>
      <trkpt lat="43.46357" lon="1.53038">
        <ele>197</ele>
        <time>2013-08-25T16:11:50Z</time>
      </trkpt>
      <trkpt lat="43.46362" lon="1.53036">
        <ele>197</ele>
        <time>2013-08-25T16:11:51Z</time>
      </trkpt>
      <trkpt lat="43.46366" lon="1.53034">
        <ele>197</ele>
        <time>2013-08-25T16:11:52Z</time>
      </trkpt>
      <trkpt lat="43.46371" lon="1.53033">
        <ele>197</ele>
        <time>2013-08-25T16:11:53Z</time>
      </trkpt>
      <trkpt lat="43.46375" lon="1.53032">
        <ele>197</ele>
        <time>2013-08-25T16:11:54Z</time>
      </trkpt>
      <trkpt lat="43.46379" lon="1.53031">
        <ele>197</ele>
        <time>2013-08-25T16:11:55Z</time>
      </trkpt>
      <trkpt lat="43.46382" lon="1.53029">
        <ele>197</ele>
        <time>2013-08-25T16:11:56Z</time>
      </trkpt>
      <trkpt lat="43.46389" lon="1.5303">
        <ele>197</ele>
        <time>2013-08-25T16:12:00Z</time>
      </trkpt>
      <trkpt lat="43.46389" lon="1.53031">
        <ele>197</ele>
        <time>2013-08-25T16:12:01Z</time>
      </trkpt>
      <trkpt lat="43.46387" lon="1.53031">
        <ele>197</ele>
        <time>2013-08-25T16:12:02Z</time>
      </trkpt>
      <trkpt lat="43.46364" lon="1.53039">
        <ele>197</ele>
        <time>2013-08-25T16:12:10Z</time>
      </trkpt>
      <trkpt lat="43.46355" lon="1.53038">
        <ele>197</ele>
        <time>2013-08-25T16:12:17Z</time>
      </trkpt>
      <trkpt lat="43.46355" lon="1.53038">
        <ele>197</ele>
        <time>2013-08-25T16:12:24Z</time>
      </trkpt>
      <trkpt lat="43.46355" lon="1.53036">
        <ele>197</ele>
        <time>2013-08-25T16:12:36Z</time>
      </trkpt>
      <trkpt lat="43.46355" lon="1.53035">
        <ele>197</ele>
        <time>2013-08-25T16:12:51Z</time>
      </trkpt>
      <trkpt lat="43.46354" lon="1.53036">
        <ele>197</ele>
        <time>2013-08-25T16:13:04Z</time>
      </trkpt>
      <trkpt lat="43.46354" lon="1.53036">
        <ele>197</ele>
        <time>2013-08-25T16:13:18Z</time>
      </trkpt>
      <trkpt lat="43.46353" lon="1.53036">
        <ele>197</ele>
        <time>2013-08-25T16:13:28Z</time>
      </trkpt>
      <trkpt lat="43.46353" lon="1.53036">
        <ele>197</ele>
        <time>2013-08-25T16:13:29Z</time>
      </trkpt>
      <trkpt lat="43.46353" lon="1.53036">
        <ele>197</ele>
        <time>2013-08-25T16:13:34Z</time>
      </trkpt>
      <trkpt lat="43.46353" lon="1.53036">
        <ele>197</ele>
        <time>2013-08-25T16:13:42Z</time>
      </trkpt>
      <trkpt lat="43.46353" lon="1.53036">
        <ele>197</ele>
        <time>2013-08-25T16:13:53Z</time>
      </trkpt>
      <trkpt lat="43.46353" lon="1.53036">
        <ele>197</ele>
        <time>2013-08-25T16:13:57Z</time>
      </trkpt>
      <trkpt lat="43.46353" lon="1.53035">
        <ele>197</ele>
        <time>2013-08-25T16:14:03Z</time>
      </trkpt>
      <trkpt lat="43.46352" lon="1.5303">
        <ele>197</ele>
        <time>2013-08-25T16:14:11Z</time>
      </trkpt>
      <trkpt lat="43.46351" lon="1.53029">
        <ele>197</ele>
        <time>2013-08-25T16:14:12Z</time>
      </trkpt>
      <trkpt lat="43.4635" lon="1.53028">
        <ele>197</ele>
        <time>2013-08-25T16:14:15Z</time>
      </trkpt>
      <trkpt lat="43.46348" lon="1.53028">
        <ele>197</ele>
        <time>2013-08-25T16:14:16Z</time>
      </trkpt>
      <trkpt lat="43.46346" lon="1.53028">
        <ele>197</ele>
        <time>2013-08-25T16:14:17Z</time>
      </trkpt>
      <trkpt lat="43.46345" lon="1.53026">
        <ele>197</ele>
        <time>2013-08-25T16:14:18Z</time>
      </trkpt>
      <trkpt lat="43.46344" lon="1.53025">
        <ele>197</ele>
        <time>2013-08-25T16:14:19Z</time>
      </trkpt>
      <trkpt lat="43.46343" lon="1.53023">
        <ele>197</ele>
        <time>2013-08-25T16:14:20Z</time>
      </trkpt>
      <trkpt lat="43.46342" lon="1.53021">
        <ele>197</ele>
        <time>2013-08-25T16:14:21Z</time>
      </trkpt>
      <trkpt lat="43.46341" lon="1.53019">
        <ele>197</ele>
        <time>2013-08-25T16:14:22Z</time>
      </trkpt>
      <trkpt lat="43.46341" lon="1.53017">
        <ele>197</ele>
        <time>2013-08-25T16:14:23Z</time>
      </trkpt>
      <trkpt lat="43.46341" lon="1.53014">
        <ele>196</ele>
        <time>2013-08-25T16:14:24Z</time>
      </trkpt>
      <trkpt lat="43.46341" lon="1.5301">
        <ele>196</ele>
        <time>2013-08-25T16:14:25Z</time>
      </trkpt>
      <trkpt lat="43.46341" lon="1.53006">
        <ele>196</ele>
        <time>2013-08-25T16:14:26Z</time>
      </trkpt>
      <trkpt lat="43.46339" lon="1.52975">
        <ele>196</ele>
        <time>2013-08-25T16:14:34Z</time>
      </trkpt>
      <trkpt lat="43.46333" lon="1.52931">
        <ele>198</ele>
        <time>2013-08-25T16:14:42Z</time>
      </trkpt>
      <trkpt lat="43.46326" lon="1.5291">
        <ele>199</ele>
        <time>2013-08-25T16:14:47Z</time>
      </trkpt>
      <trkpt lat="43.46324" lon="1.52898">
        <ele>200</ele>
        <time>2013-08-25T16:14:54Z</time>
      </trkpt>
      <trkpt lat="43.46323" lon="1.52893">
        <ele>200</ele>
        <time>2013-08-25T16:14:59Z</time>
      </trkpt>
      <trkpt lat="43.46318" lon="1.52863">
        <ele>201</ele>
        <time>2013-08-25T16:15:05Z</time>
      </trkpt>
      <trkpt lat="43.46311" lon="1.52835">
        <ele>201</ele>
        <time>2013-08-25T16:15:11Z</time>
      </trkpt>
      <trkpt lat="43.46303" lon="1.52808">
        <ele>202</ele>
        <time>2013-08-25T16:15:18Z</time>
      </trkpt>
      <trkpt lat="43.46304" lon="1.52794">
        <ele>202</ele>
        <time>2013-08-25T16:15:25Z</time>
      </trkpt>
      <trkpt lat="43.46305" lon="1.52792">
        <ele>202</ele>
        <time>2013-08-25T16:15:26Z</time>
      </trkpt>
      <trkpt lat="43.46311" lon="1.5278">
        <ele>202</ele>
        <time>2013-08-25T16:15:33Z</time>
      </trkpt>
      <trkpt lat="43.46314" lon="1.5277">
        <ele>203</ele>
        <time>2013-08-25T16:15:37Z</time>
      </trkpt>
      <trkpt lat="43.46315" lon="1.52768">
        <ele>203</ele>
        <time>2013-08-25T16:15:38Z</time>
      </trkpt>
      <trkpt lat="43.46316" lon="1.52765">
        <ele>203</ele>
        <time>2013-08-25T16:15:39Z</time>
      </trkpt>
      <trkpt lat="43.46317" lon="1.52763">
        <ele>203</ele>
        <time>2013-08-25T16:15:40Z</time>
      </trkpt>
      <trkpt lat="43.46317" lon="1.52761">
        <ele>203</ele>
        <time>2013-08-25T16:15:41Z</time>
      </trkpt>
      <trkpt lat="43.46317" lon="1.5276">
        <ele>203</ele>
        <time>2013-08-25T16:15:42Z</time>
      </trkpt>
      <trkpt lat="43.46322" lon="1.52745">
        <ele>204</ele>
        <time>2013-08-25T16:15:49Z</time>
      </trkpt>
      <trkpt lat="43.46326" lon="1.52728">
        <ele>205</ele>
        <time>2013-08-25T16:15:56Z</time>
      </trkpt>
      <trkpt lat="43.46333" lon="1.52701">
        <ele>213</ele>
        <time>2013-08-25T16:16:06Z</time>
      </trkpt>
      <trkpt lat="43.4634" lon="1.52686">
        <ele>212</ele>
        <time>2013-08-25T16:16:14Z</time>
      </trkpt>
      <trkpt lat="43.46347" lon="1.5267">
        <ele>212</ele>
        <time>2013-08-25T16:16:23Z</time>
      </trkpt>
      <trkpt lat="43.46355" lon="1.52652">
        <ele>215</ele>
        <time>2013-08-25T16:16:32Z</time>
      </trkpt>
      <trkpt lat="43.46364" lon="1.52634">
        <ele>217</ele>
        <time>2013-08-25T16:16:40Z</time>
      </trkpt>
      <trkpt lat="43.46376" lon="1.52612">
        <ele>218</ele>
        <time>2013-08-25T16:16:52Z</time>
      </trkpt>
      <trkpt lat="43.46385" lon="1.526">
        <ele>219</ele>
        <time>2013-08-25T16:17:01Z</time>
      </trkpt>
      <trkpt lat="43.46397" lon="1.52586">
        <ele>221</ele>
        <time>2013-08-25T16:17:11Z</time>
      </trkpt>
      <trkpt lat="43.4641" lon="1.52572">
        <ele>222</ele>
        <time>2013-08-25T16:17:21Z</time>
      </trkpt>
      <trkpt lat="43.46415" lon="1.52566">
        <ele>221</ele>
        <time>2013-08-25T16:17:27Z</time>
      </trkpt>
      <trkpt lat="43.46416" lon="1.52565">
        <ele>221</ele>
        <time>2013-08-25T16:17:28Z</time>
      </trkpt>
      <trkpt lat="43.46426" lon="1.52555">
        <ele>230</ele>
        <time>2013-08-25T16:17:37Z</time>
      </trkpt>
      <trkpt lat="43.46436" lon="1.52544">
        <ele>231</ele>
        <time>2013-08-25T16:17:45Z</time>
      </trkpt>
      <trkpt lat="43.46449" lon="1.52531">
        <ele>232</ele>
        <time>2013-08-25T16:17:56Z</time>
      </trkpt>
      <trkpt lat="43.46461" lon="1.52518">
        <ele>234</ele>
        <time>2013-08-25T16:18:06Z</time>
      </trkpt>
      <trkpt lat="43.46476" lon="1.52507">
        <ele>236</ele>
        <time>2013-08-25T16:18:16Z</time>
      </trkpt>
      <trkpt lat="43.46485" lon="1.52499">
        <ele>235</ele>
        <time>2013-08-25T16:18:24Z</time>
      </trkpt>
      <trkpt lat="43.46496" lon="1.52484">
        <ele>235</ele>
        <time>2013-08-25T16:18:34Z</time>
      </trkpt>
      <trkpt lat="43.46506" lon="1.52472">
        <ele>241</ele>
        <time>2013-08-25T16:18:42Z</time>
      </trkpt>
      <trkpt lat="43.46516" lon="1.52464">
        <ele>241</ele>
        <time>2013-08-25T16:18:49Z</time>
      </trkpt>
      <trkpt lat="43.46525" lon="1.52456">
        <ele>241</ele>
        <time>2013-08-25T16:18:56Z</time>
      </trkpt>
      <trkpt lat="43.46532" lon="1.52446">
        <ele>242</ele>
        <time>2013-08-25T16:19:04Z</time>
      </trkpt>
      <trkpt lat="43.46543" lon="1.52435">
        <ele>243</ele>
        <time>2013-08-25T16:19:13Z</time>
      </trkpt>
      <trkpt lat="43.4655" lon="1.52429">
        <ele>243</ele>
        <time>2013-08-25T16:19:21Z</time>
      </trkpt>
      <trkpt lat="43.46551" lon="1.52426">
        <ele>243</ele>
        <time>2013-08-25T16:19:28Z</time>
      </trkpt>
      <trkpt lat="43.46551" lon="1.52424">
        <ele>243</ele>
        <time>2013-08-25T16:19:35Z</time>
      </trkpt>
      <trkpt lat="43.46551" lon="1.52423">
        <ele>243</ele>
        <time>2013-08-25T16:19:49Z</time>
      </trkpt>
      <trkpt lat="43.46552" lon="1.52424">
        <ele>244</ele>
        <time>2013-08-25T16:19:56Z</time>
      </trkpt>
      <trkpt lat="43.46553" lon="1.52423">
        <ele>244</ele>
        <time>2013-08-25T16:20:01Z</time>
      </trkpt>
      <trkpt lat="43.46559" lon="1.52414">
        <ele>244</ele>
        <time>2013-08-25T16:20:08Z</time>
      </trkpt>
      <trkpt lat="43.46572" lon="1.52404">
        <ele>246</ele>
        <time>2013-08-25T16:20:18Z</time>
      </trkpt>
      <trkpt lat="43.46587" lon="1.5239">
        <ele>250</ele>
        <time>2013-08-25T16:20:28Z</time>
      </trkpt>
      <trkpt lat="43.46598" lon="1.52373">
        <ele>250</ele>
        <time>2013-08-25T16:20:38Z</time>
      </trkpt>
      <trkpt lat="43.46607" lon="1.52353">
        <ele>250</ele>
        <time>2013-08-25T16:20:48Z</time>
      </trkpt>
      <trkpt lat="43.46614" lon="1.52337">
        <ele>251</ele>
        <time>2013-08-25T16:20:55Z</time>
      </trkpt>
      <trkpt lat="43.4662" lon="1.52316">
        <ele>255</ele>
        <time>2013-08-25T16:21:04Z</time>
      </trkpt>
      <trkpt lat="43.46629" lon="1.52297">
        <ele>256</ele>
        <time>2013-08-25T16:21:13Z</time>
      </trkpt>
      <trkpt lat="43.46635" lon="1.52278">
        <ele>256</ele>
        <time>2013-08-25T16:21:22Z</time>
      </trkpt>
      <trkpt lat="43.46639" lon="1.52264">
        <ele>257</ele>
        <time>2013-08-25T16:21:29Z</time>
      </trkpt>
      <trkpt lat="43.46645" lon="1.52237">
        <ele>260</ele>
        <time>2013-08-25T16:21:37Z</time>
      </trkpt>
      <trkpt lat="43.46651" lon="1.52215">
        <ele>261</ele>
        <time>2013-08-25T16:21:44Z</time>
      </trkpt>
      <trkpt lat="43.46659" lon="1.52186">
        <ele>263</ele>
        <time>2013-08-25T16:21:54Z</time>
      </trkpt>
      <trkpt lat="43.46667" lon="1.52159">
        <ele>267</ele>
        <time>2013-08-25T16:22:03Z</time>
      </trkpt>
      <trkpt lat="43.46673" lon="1.52138">
        <ele>266</ele>
        <time>2013-08-25T16:22:10Z</time>
      </trkpt>
      <trkpt lat="43.46678" lon="1.52116">
        <ele>267</ele>
        <time>2013-08-25T16:22:17Z</time>
      </trkpt>
      <trkpt lat="43.46686" lon="1.52091">
        <ele>268</ele>
        <time>2013-08-25T16:22:25Z</time>
      </trkpt>
      <trkpt lat="43.46693" lon="1.52067">
        <ele>269</ele>
        <time>2013-08-25T16:22:33Z</time>
      </trkpt>
      <trkpt lat="43.46699" lon="1.52045">
        <ele>269</ele>
        <time>2013-08-25T16:22:41Z</time>
      </trkpt>
      <trkpt lat="43.46706" lon="1.5202">
        <ele>270</ele>
        <time>2013-08-25T16:22:50Z</time>
      </trkpt>
      <trkpt lat="43.46711" lon="1.52005">
        <ele>270</ele>
        <time>2013-08-25T16:22:56Z</time>
      </trkpt>
      <trkpt lat="43.46717" lon="1.51986">
        <ele>271</ele>
        <time>2013-08-25T16:23:04Z</time>
      </trkpt>
      <trkpt lat="43.46722" lon="1.51969">
        <ele>271</ele>
        <time>2013-08-25T16:23:11Z</time>
      </trkpt>
      <trkpt lat="43.46723" lon="1.51967">
        <ele>271</ele>
        <time>2013-08-25T16:23:12Z</time>
      </trkpt>
      <trkpt lat="43.46725" lon="1.51965">
        <ele>272</ele>
        <time>2013-08-25T16:23:13Z</time>
      </trkpt>
      <trkpt lat="43.46726" lon="1.51963">
        <ele>272</ele>
        <time>2013-08-25T16:23:14Z</time>
      </trkpt>
      <trkpt lat="43.46735" lon="1.51943">
        <ele>272</ele>
        <time>2013-08-25T16:23:21Z</time>
      </trkpt>
      <trkpt lat="43.46744" lon="1.5193">
        <ele>273</ele>
        <time>2013-08-25T16:23:27Z</time>
      </trkpt>
      <trkpt lat="43.46754" lon="1.51917">
        <ele>273</ele>
        <time>2013-08-25T16:23:32Z</time>
      </trkpt>
      <trkpt lat="43.46775" lon="1.51889">
        <ele>272</ele>
        <time>2013-08-25T16:23:41Z</time>
      </trkpt>
      <trkpt lat="43.46795" lon="1.51865">
        <ele>272</ele>
        <time>2013-08-25T16:23:48Z</time>
      </trkpt>
      <trkpt lat="43.4683" lon="1.51813">
        <ele>271</ele>
        <time>2013-08-25T16:23:58Z</time>
      </trkpt>
      <trkpt lat="43.46841" lon="1.51796">
        <ele>270</ele>
        <time>2013-08-25T16:24:01Z</time>
      </trkpt>
      <trkpt lat="43.46867" lon="1.51741">
        <ele>268</ele>
        <time>2013-08-25T16:24:10Z</time>
      </trkpt>
      <trkpt lat="43.46887" lon="1.51684">
        <ele>266</ele>
        <time>2013-08-25T16:24:18Z</time>
      </trkpt>
      <trkpt lat="43.4691" lon="1.51615">
        <ele>263</ele>
        <time>2013-08-25T16:24:27Z</time>
      </trkpt>
      <trkpt lat="43.46923" lon="1.51571">
        <ele>262</ele>
        <time>2013-08-25T16:24:33Z</time>
      </trkpt>
      <trkpt lat="43.46922" lon="1.51566">
        <ele>262</ele>
        <time>2013-08-25T16:24:34Z</time>
      </trkpt>
      <trkpt lat="43.4692" lon="1.5156">
        <ele>261</ele>
        <time>2013-08-25T16:24:35Z</time>
      </trkpt>
      <trkpt lat="43.46917" lon="1.51555">
        <ele>261</ele>
        <time>2013-08-25T16:24:36Z</time>
      </trkpt>
      <trkpt lat="43.46914" lon="1.51551">
        <ele>261</ele>
        <time>2013-08-25T16:24:37Z</time>
      </trkpt>
      <trkpt lat="43.4691" lon="1.51547">
        <ele>261</ele>
        <time>2013-08-25T16:24:38Z</time>
      </trkpt>
      <trkpt lat="43.46906" lon="1.51545">
        <ele>261</ele>
        <time>2013-08-25T16:24:39Z</time>
      </trkpt>
      <trkpt lat="43.46902" lon="1.51542">
        <ele>261</ele>
        <time>2013-08-25T16:24:40Z</time>
      </trkpt>
      <trkpt lat="43.46898" lon="1.5154">
        <ele>261</ele>
        <time>2013-08-25T16:24:41Z</time>
      </trkpt>
      <trkpt lat="43.46855" lon="1.51525">
        <ele>260</ele>
        <time>2013-08-25T16:24:50Z</time>
      </trkpt>
      <trkpt lat="43.46844" lon="1.51521">
        <ele>260</ele>
        <time>2013-08-25T16:24:52Z</time>
      </trkpt>
      <trkpt lat="43.46821" lon="1.51516">
        <ele>258</ele>
        <time>2013-08-25T16:24:56Z</time>
      </trkpt>
      <trkpt lat="43.46814" lon="1.51517">
        <ele>258</ele>
        <time>2013-08-25T16:24:57Z</time>
      </trkpt>
      <trkpt lat="43.46808" lon="1.51518">
        <ele>258</ele>
        <time>2013-08-25T16:24:58Z</time>
      </trkpt>
      <trkpt lat="43.46802" lon="1.5152">
        <ele>257</ele>
        <time>2013-08-25T16:24:59Z</time>
      </trkpt>
      <trkpt lat="43.46796" lon="1.51523">
        <ele>257</ele>
        <time>2013-08-25T16:25:00Z</time>
      </trkpt>
      <trkpt lat="43.4679" lon="1.51527">
        <ele>257</ele>
        <time>2013-08-25T16:25:01Z</time>
      </trkpt>
      <trkpt lat="43.46784" lon="1.51532">
        <ele>257</ele>
        <time>2013-08-25T16:25:02Z</time>
      </trkpt>
      <trkpt lat="43.46778" lon="1.51537">
        <ele>257</ele>
        <time>2013-08-25T16:25:03Z</time>
      </trkpt>
      <trkpt lat="43.46773" lon="1.51544">
        <ele>257</ele>
        <time>2013-08-25T16:25:04Z</time>
      </trkpt>
      <trkpt lat="43.46767" lon="1.51551">
        <ele>257</ele>
        <time>2013-08-25T16:25:05Z</time>
      </trkpt>
      <trkpt lat="43.46723" lon="1.51611">
        <ele>254</ele>
        <time>2013-08-25T16:25:13Z</time>
      </trkpt>
      <trkpt lat="43.46688" lon="1.51666">
        <ele>253</ele>
        <time>2013-08-25T16:25:20Z</time>
      </trkpt>
      <trkpt lat="43.46657" lon="1.51711">
        <ele>255</ele>
        <time>2013-08-25T16:25:27Z</time>
      </trkpt>
      <trkpt lat="43.46654" lon="1.51714">
        <ele>255</ele>
        <time>2013-08-25T16:25:28Z</time>
      </trkpt>
      <trkpt lat="43.46651" lon="1.51715">
        <ele>255</ele>
        <time>2013-08-25T16:25:29Z</time>
      </trkpt>
      <trkpt lat="43.46649" lon="1.51713">
        <ele>255</ele>
        <time>2013-08-25T16:25:30Z</time>
      </trkpt>
      <trkpt lat="43.46648" lon="1.51707">
        <ele>255</ele>
        <time>2013-08-25T16:25:31Z</time>
      </trkpt>
      <trkpt lat="43.46649" lon="1.517">
        <ele>254</ele>
        <time>2013-08-25T16:25:32Z</time>
      </trkpt>
      <trkpt lat="43.4665" lon="1.51691">
        <ele>254</ele>
        <time>2013-08-25T16:25:33Z</time>
      </trkpt>
      <trkpt lat="43.46666" lon="1.51616">
        <ele>249</ele>
        <time>2013-08-25T16:25:41Z</time>
      </trkpt>
      <trkpt lat="43.46688" lon="1.51513">
        <ele>246</ele>
        <time>2013-08-25T16:25:51Z</time>
      </trkpt>
      <trkpt lat="43.46709" lon="1.51418">
        <ele>242</ele>
        <time>2013-08-25T16:26:00Z</time>
      </trkpt>
      <trkpt lat="43.46729" lon="1.51362">
        <ele>237</ele>
        <time>2013-08-25T16:26:07Z</time>
      </trkpt>
      <trkpt lat="43.46753" lon="1.51313">
        <ele>236</ele>
        <time>2013-08-25T16:26:13Z</time>
      </trkpt>
      <trkpt lat="43.46777" lon="1.51263">
        <ele>236</ele>
        <time>2013-08-25T16:26:19Z</time>
      </trkpt>
      <trkpt lat="43.46806" lon="1.51207">
        <ele>235</ele>
        <time>2013-08-25T16:26:26Z</time>
      </trkpt>
      <trkpt lat="43.46842" lon="1.51128">
        <ele>233</ele>
        <time>2013-08-25T16:26:35Z</time>
      </trkpt>
      <trkpt lat="43.4685" lon="1.51107">
        <ele>233</ele>
        <time>2013-08-25T16:26:37Z</time>
      </trkpt>
      <trkpt lat="43.46852" lon="1.51095">
        <ele>233</ele>
        <time>2013-08-25T16:26:38Z</time>
      </trkpt>
      <trkpt lat="43.46865" lon="1.5103">
        <ele>230</ele>
        <time>2013-08-25T16:26:43Z</time>
      </trkpt>
      <trkpt lat="43.46887" lon="1.50965">
        <ele>227</ele>
        <time>2013-08-25T16:26:49Z</time>
      </trkpt>
      <trkpt lat="43.4689" lon="1.50956">
        <ele>227</ele>
        <time>2013-08-25T16:26:50Z</time>
      </trkpt>
      <trkpt lat="43.46913" lon="1.50891">
        <ele>228</ele>
        <time>2013-08-25T16:26:57Z</time>
      </trkpt>
      <trkpt lat="43.46917" lon="1.50881">
        <ele>228</ele>
        <time>2013-08-25T16:26:58Z</time>
      </trkpt>
      <trkpt lat="43.46948" lon="1.50816">
        <ele>230</ele>
        <time>2013-08-25T16:27:05Z</time>
      </trkpt>
      <trkpt lat="43.4696" lon="1.50788">
        <ele>229</ele>
        <time>2013-08-25T16:27:08Z</time>
      </trkpt>
      <trkpt lat="43.46981" lon="1.50721">
        <ele>229</ele>
        <time>2013-08-25T16:27:15Z</time>
      </trkpt>
      <trkpt lat="43.47008" lon="1.50658">
        <ele>227</ele>
        <time>2013-08-25T16:27:23Z</time>
      </trkpt>
      <trkpt lat="43.47034" lon="1.5059">
        <ele>226</ele>
        <time>2013-08-25T16:27:31Z</time>
      </trkpt>
      <trkpt lat="43.47043" lon="1.50561">
        <ele>224</ele>
        <time>2013-08-25T16:27:34Z</time>
      </trkpt>
      <trkpt lat="43.47053" lon="1.50503">
        <ele>222</ele>
        <time>2013-08-25T16:27:40Z</time>
      </trkpt>
      <trkpt lat="43.47065" lon="1.50438">
        <ele>220</ele>
        <time>2013-08-25T16:27:47Z</time>
      </trkpt>
      <trkpt lat="43.47082" lon="1.50364">
        <ele>221</ele>
        <time>2013-08-25T16:27:55Z</time>
      </trkpt>
      <trkpt lat="43.47097" lon="1.50302">
        <ele>220</ele>
        <time>2013-08-25T16:28:02Z</time>
      </trkpt>
      <trkpt lat="43.47098" lon="1.50284">
        <ele>220</ele>
        <time>2013-08-25T16:28:04Z</time>
      </trkpt>
      <trkpt lat="43.47097" lon="1.50275">
        <ele>220</ele>
        <time>2013-08-25T16:28:05Z</time>
      </trkpt>
      <trkpt lat="43.47096" lon="1.50266">
        <ele>219</ele>
        <time>2013-08-25T16:28:06Z</time>
      </trkpt>
      <trkpt lat="43.47089" lon="1.50204">
        <ele>220</ele>
        <time>2013-08-25T16:28:13Z</time>
      </trkpt>
      <trkpt lat="43.47089" lon="1.50131">
        <ele>220</ele>
        <time>2013-08-25T16:28:21Z</time>
      </trkpt>
      <trkpt lat="43.47088" lon="1.50046">
        <ele>218</ele>
        <time>2013-08-25T16:28:31Z</time>
      </trkpt>
      <trkpt lat="43.47088" lon="1.49993">
        <ele>214</ele>
        <time>2013-08-25T16:28:38Z</time>
      </trkpt>
      <trkpt lat="43.47088" lon="1.49987">
        <ele>215</ele>
        <time>2013-08-25T16:28:39Z</time>
      </trkpt>
      <trkpt lat="43.47087" lon="1.49982">
        <ele>215</ele>
        <time>2013-08-25T16:28:40Z</time>
      </trkpt>
      <trkpt lat="43.47085" lon="1.49978">
        <ele>215</ele>
        <time>2013-08-25T16:28:41Z</time>
      </trkpt>
      <trkpt lat="43.47083" lon="1.49975">
        <ele>213</ele>
        <time>2013-08-25T16:28:42Z</time>
      </trkpt>
      <trkpt lat="43.4708" lon="1.49971">
        <ele>213</ele>
        <time>2013-08-25T16:28:43Z</time>
      </trkpt>
      <trkpt lat="43.47076" lon="1.49969">
        <ele>213</ele>
        <time>2013-08-25T16:28:44Z</time>
      </trkpt>
      <trkpt lat="43.47073" lon="1.49966">
        <ele>213</ele>
        <time>2013-08-25T16:28:45Z</time>
      </trkpt>
      <trkpt lat="43.4707" lon="1.49962">
        <ele>213</ele>
        <time>2013-08-25T16:28:46Z</time>
      </trkpt>
      <trkpt lat="43.47068" lon="1.49958">
        <ele>213</ele>
        <time>2013-08-25T16:28:47Z</time>
      </trkpt>
      <trkpt lat="43.47067" lon="1.49952">
        <ele>213</ele>
        <time>2013-08-25T16:28:48Z</time>
      </trkpt>
      <trkpt lat="43.47067" lon="1.49947">
        <ele>212</ele>
        <time>2013-08-25T16:28:49Z</time>
      </trkpt>
      <trkpt lat="43.47067" lon="1.49935">
        <ele>212</ele>
        <time>2013-08-25T16:28:51Z</time>
      </trkpt>
      <trkpt lat="43.47067" lon="1.49923">
        <ele>212</ele>
        <time>2013-08-25T16:28:53Z</time>
      </trkpt>
      <trkpt lat="43.47067" lon="1.49916">
        <ele>211</ele>
        <time>2013-08-25T16:28:54Z</time>
      </trkpt>
      <trkpt lat="43.47067" lon="1.49875">
        <ele>211</ele>
        <time>2013-08-25T16:29:00Z</time>
      </trkpt>
      <trkpt lat="43.47068" lon="1.49869">
        <ele>211</ele>
        <time>2013-08-25T16:29:01Z</time>
      </trkpt>
      <trkpt lat="43.4707" lon="1.49809">
        <ele>211</ele>
        <time>2013-08-25T16:29:09Z</time>
      </trkpt>
      <trkpt lat="43.47073" lon="1.4975">
        <ele>209</ele>
        <time>2013-08-25T16:29:16Z</time>
      </trkpt>
      <trkpt lat="43.47076" lon="1.49694">
        <ele>209</ele>
        <time>2013-08-25T16:29:23Z</time>
      </trkpt>
      <trkpt lat="43.47077" lon="1.49686">
        <ele>209</ele>
        <time>2013-08-25T16:29:24Z</time>
      </trkpt>
      <trkpt lat="43.4708" lon="1.4967">
        <ele>207</ele>
        <time>2013-08-25T16:29:26Z</time>
      </trkpt>
      <trkpt lat="43.4708" lon="1.49662">
        <ele>207</ele>
        <time>2013-08-25T16:29:27Z</time>
      </trkpt>
      <trkpt lat="43.47081" lon="1.49647">
        <ele>209</ele>
        <time>2013-08-25T16:29:29Z</time>
      </trkpt>
      <trkpt lat="43.47081" lon="1.49641">
        <ele>209</ele>
        <time>2013-08-25T16:29:30Z</time>
      </trkpt>
      <trkpt lat="43.47083" lon="1.49628">
        <ele>210</ele>
        <time>2013-08-25T16:29:32Z</time>
      </trkpt>
      <trkpt lat="43.47086" lon="1.49601">
        <ele>209</ele>
        <time>2013-08-25T16:29:36Z</time>
      </trkpt>
      <trkpt lat="43.47088" lon="1.49594">
        <ele>208</ele>
        <time>2013-08-25T16:29:37Z</time>
      </trkpt>
      <trkpt lat="43.47089" lon="1.49587">
        <ele>208</ele>
        <time>2013-08-25T16:29:38Z</time>
      </trkpt>
      <trkpt lat="43.4709" lon="1.49581">
        <ele>208</ele>
        <time>2013-08-25T16:29:39Z</time>
      </trkpt>
      <trkpt lat="43.4709" lon="1.49575">
        <ele>208</ele>
        <time>2013-08-25T16:29:40Z</time>
      </trkpt>
      <trkpt lat="43.47092" lon="1.49555">
        <ele>209</ele>
        <time>2013-08-25T16:29:43Z</time>
      </trkpt>
      <trkpt lat="43.47096" lon="1.4954">
        <ele>209</ele>
        <time>2013-08-25T16:29:46Z</time>
      </trkpt>
      <trkpt lat="43.47098" lon="1.49538">
        <ele>209</ele>
        <time>2013-08-25T16:29:47Z</time>
      </trkpt>
      <trkpt lat="43.47099" lon="1.49535">
        <ele>209</ele>
        <time>2013-08-25T16:29:48Z</time>
      </trkpt>
      <trkpt lat="43.471" lon="1.49531">
        <ele>209</ele>
        <time>2013-08-25T16:29:49Z</time>
      </trkpt>
      <trkpt lat="43.471" lon="1.49527">
        <ele>209</ele>
        <time>2013-08-25T16:29:50Z</time>
      </trkpt>
      <trkpt lat="43.47107" lon="1.495">
        <ele>209</ele>
        <time>2013-08-25T16:29:55Z</time>
      </trkpt>
      <trkpt lat="43.47122" lon="1.49454">
        <ele>208</ele>
        <time>2013-08-25T16:30:02Z</time>
      </trkpt>
      <trkpt lat="43.47132" lon="1.49419">
        <ele>208</ele>
        <time>2013-08-25T16:30:07Z</time>
      </trkpt>
      <trkpt lat="43.47147" lon="1.49364">
        <ele>208</ele>
        <time>2013-08-25T16:30:15Z</time>
      </trkpt>
      <trkpt lat="43.47153" lon="1.49345">
        <ele>207</ele>
        <time>2013-08-25T16:30:18Z</time>
      </trkpt>
      <trkpt lat="43.47154" lon="1.49338">
        <ele>206</ele>
        <time>2013-08-25T16:30:19Z</time>
      </trkpt>
      <trkpt lat="43.47155" lon="1.49332">
        <ele>206</ele>
        <time>2013-08-25T16:30:20Z</time>
      </trkpt>
      <trkpt lat="43.47157" lon="1.49326">
        <ele>206</ele>
        <time>2013-08-25T16:30:21Z</time>
      </trkpt>
      <trkpt lat="43.47159" lon="1.4932">
        <ele>207</ele>
        <time>2013-08-25T16:30:22Z</time>
      </trkpt>
      <trkpt lat="43.47162" lon="1.49314">
        <ele>207</ele>
        <time>2013-08-25T16:30:23Z</time>
      </trkpt>
      <trkpt lat="43.4717" lon="1.49295">
        <ele>207</ele>
        <time>2013-08-25T16:30:26Z</time>
      </trkpt>
      <trkpt lat="43.47186" lon="1.49252">
        <ele>207</ele>
        <time>2013-08-25T16:30:32Z</time>
      </trkpt>
      <trkpt lat="43.47203" lon="1.492">
        <ele>206</ele>
        <time>2013-08-25T16:30:39Z</time>
      </trkpt>
      <trkpt lat="43.47218" lon="1.49147">
        <ele>205</ele>
        <time>2013-08-25T16:30:47Z</time>
      </trkpt>
      <trkpt lat="43.47222" lon="1.49123">
        <ele>205</ele>
        <time>2013-08-25T16:30:51Z</time>
      </trkpt>
      <trkpt lat="43.47224" lon="1.49117">
        <ele>205</ele>
        <time>2013-08-25T16:30:52Z</time>
      </trkpt>
      <trkpt lat="43.47228" lon="1.49112">
        <ele>205</ele>
        <time>2013-08-25T16:30:53Z</time>
      </trkpt>
      <trkpt lat="43.47232" lon="1.49108">
        <ele>205</ele>
        <time>2013-08-25T16:30:54Z</time>
      </trkpt>
      <trkpt lat="43.47237" lon="1.49106">
        <ele>205</ele>
        <time>2013-08-25T16:30:55Z</time>
      </trkpt>
      <trkpt lat="43.47241" lon="1.49106">
        <ele>205</ele>
        <time>2013-08-25T16:30:56Z</time>
      </trkpt>
      <trkpt lat="43.47244" lon="1.49108">
        <ele>205</ele>
        <time>2013-08-25T16:30:57Z</time>
      </trkpt>
      <trkpt lat="43.47247" lon="1.49112">
        <ele>205</ele>
        <time>2013-08-25T16:30:58Z</time>
      </trkpt>
      <trkpt lat="43.47249" lon="1.49116">
        <ele>205</ele>
        <time>2013-08-25T16:30:59Z</time>
      </trkpt>
      <trkpt lat="43.4725" lon="1.4912">
        <ele>207</ele>
        <time>2013-08-25T16:31:00Z</time>
      </trkpt>
      <trkpt lat="43.47252" lon="1.49123">
        <ele>207</ele>
        <time>2013-08-25T16:31:01Z</time>
      </trkpt>
      <trkpt lat="43.47254" lon="1.49127">
        <ele>207</ele>
        <time>2013-08-25T16:31:02Z</time>
      </trkpt>
      <trkpt lat="43.47256" lon="1.49131">
        <ele>207</ele>
        <time>2013-08-25T16:31:03Z</time>
      </trkpt>
      <trkpt lat="43.47258" lon="1.49134">
        <ele>207</ele>
        <time>2013-08-25T16:31:04Z</time>
      </trkpt>
      <trkpt lat="43.4726" lon="1.49137">
        <ele>207</ele>
        <time>2013-08-25T16:31:05Z</time>
      </trkpt>
      <trkpt lat="43.47268" lon="1.49156">
        <ele>207</ele>
        <time>2013-08-25T16:31:11Z</time>
      </trkpt>
      <trkpt lat="43.47278" lon="1.49174">
        <ele>209</ele>
        <time>2013-08-25T16:31:17Z</time>
      </trkpt>
      <trkpt lat="43.47288" lon="1.49191">
        <ele>210</ele>
        <time>2013-08-25T16:31:23Z</time>
      </trkpt>
      <trkpt lat="43.47297" lon="1.49209">
        <ele>211</ele>
        <time>2013-08-25T16:31:29Z</time>
      </trkpt>
      <trkpt lat="43.47308" lon="1.49225">
        <ele>212</ele>
        <time>2013-08-25T16:31:37Z</time>
      </trkpt>
      <trkpt lat="43.47317" lon="1.4924">
        <ele>214</ele>
        <time>2013-08-25T16:31:44Z</time>
      </trkpt>
      <trkpt lat="43.47325" lon="1.49255">
        <ele>217</ele>
        <time>2013-08-25T16:31:51Z</time>
      </trkpt>
      <trkpt lat="43.4733" lon="1.49263">
        <ele>217</ele>
        <time>2013-08-25T16:31:55Z</time>
      </trkpt>
      <trkpt lat="43.4733" lon="1.49266">
        <ele>217</ele>
        <time>2013-08-25T16:31:56Z</time>
      </trkpt>
      <trkpt lat="43.4733" lon="1.49267">
        <ele>217</ele>
        <time>2013-08-25T16:31:57Z</time>
      </trkpt>
      <trkpt lat="43.47331" lon="1.4927">
        <ele>217</ele>
        <time>2013-08-25T16:31:58Z</time>
      </trkpt>
      <trkpt lat="43.47332" lon="1.49272">
        <ele>217</ele>
        <time>2013-08-25T16:31:59Z</time>
      </trkpt>
      <trkpt lat="43.47332" lon="1.49275">
        <ele>218</ele>
        <time>2013-08-25T16:32:00Z</time>
      </trkpt>
      <trkpt lat="43.47336" lon="1.49291">
        <ele>223</ele>
        <time>2013-08-25T16:32:07Z</time>
      </trkpt>
      <trkpt lat="43.47338" lon="1.493">
        <ele>224</ele>
        <time>2013-08-25T16:32:11Z</time>
      </trkpt>
      <trkpt lat="43.47338" lon="1.49302">
        <ele>224</ele>
        <time>2013-08-25T16:32:12Z</time>
      </trkpt>
      <trkpt lat="43.47346" lon="1.49321">
        <ele>225</ele>
        <time>2013-08-25T16:32:20Z</time>
      </trkpt>
      <trkpt lat="43.47349" lon="1.49336">
        <ele>228</ele>
        <time>2013-08-25T16:32:27Z</time>
      </trkpt>
      <trkpt lat="43.4735" lon="1.49342">
        <ele>229</ele>
        <time>2013-08-25T16:32:30Z</time>
      </trkpt>
      <trkpt lat="43.4735" lon="1.49345">
        <ele>229</ele>
        <time>2013-08-25T16:32:31Z</time>
      </trkpt>
      <trkpt lat="43.47351" lon="1.49346">
        <ele>229</ele>
        <time>2013-08-25T16:32:32Z</time>
      </trkpt>
      <trkpt lat="43.47352" lon="1.49354">
        <ele>229</ele>
        <time>2013-08-25T16:32:35Z</time>
      </trkpt>
      <trkpt lat="43.47346" lon="1.49375">
        <ele>231</ele>
        <time>2013-08-25T16:32:44Z</time>
      </trkpt>
      <trkpt lat="43.47335" lon="1.49392">
        <ele>231</ele>
        <time>2013-08-25T16:32:53Z</time>
      </trkpt>
      <trkpt lat="43.47329" lon="1.49416">
        <ele>231</ele>
        <time>2013-08-25T16:33:02Z</time>
      </trkpt>
    </trkseg>
  </trk>
</gpx>